createdAt,value
2019-05-05T00:02:07.599Z,6.13
2019-05-05T00:05:00.757Z,6.17
2019-05-05T00:07:36.891Z,6.10
2019-05-05T00:10:15.232Z,8.17
2019-05-05T00:12:55.838Z,6.67
2019-05-05T00:15:34.487Z,6.43
2019-05-05T00:18:11.105Z,6.47
2019-05-05T00:20:47.203Z,6.37
2019-05-05T00:23:25.115Z,8.00
2019-05-05T00:26:01.506Z,7.60
2019-05-05T00:28:37.786Z,7.07
2019-05-05T00:31:15.082Z,6.73
2019-05-05T00:33:51.268Z,7.33
2019-05-05T00:36:27.581Z,7.43
2019-05-05T00:39:04.994Z,6.93
2019-05-05T00:41:41.201Z,7.27
2019-05-05T00:44:17.376Z,7.57
2019-05-05T00:46:58.129Z,7.63
2019-05-05T00:49:45.580Z,7.83
2019-05-05T00:52:14.289Z,8.97
2019-05-05T00:54:50.576Z,8.83
2019-05-05T00:57:26.847Z,8.17
2019-05-05T01:00:05.170Z,8.53
2019-05-05T01:02:44.814Z,8.40
2019-05-05T01:05:28.613Z,8.17
2019-05-05T01:08:06.453Z,7.57
2019-05-05T01:10:44.309Z,8.50
2019-05-05T01:13:20.606Z,8.17
2019-05-05T01:15:56.909Z,8.13
2019-05-05T01:18:34.966Z,8.07
2019-05-05T01:21:10.989Z,8.00
2019-05-05T01:23:47.246Z,8.47
2019-05-05T01:26:24.827Z,8.13
2019-05-05T01:29:01.545Z,11.60
2019-05-05T01:31:37.851Z,7.67
2019-05-05T01:34:24.483Z,7.70
2019-05-05T01:37:05.060Z,7.97
2019-05-05T01:39:45.107Z,7.90
2019-05-05T01:42:20.977Z,7.80
2019-05-05T01:44:57.144Z,7.53
2019-05-05T01:47:34.711Z,7.83
2019-05-05T01:50:18.237Z,9.30
2019-05-05T01:52:48.723Z,7.73
2019-05-05T01:55:25.306Z,7.70
2019-05-05T01:58:01.468Z,7.60
2019-05-05T02:00:37.705Z,8.57
2019-05-05T02:03:14.770Z,8.83
2019-05-05T02:05:51.140Z,8.90
2019-05-05T02:08:27.269Z,7.97
2019-05-05T02:11:05.217Z,7.13
2019-05-05T02:13:41.285Z,8.53
2019-05-05T02:16:17.481Z,8.50
2019-05-05T02:18:54.416Z,8.73
2019-05-05T02:21:30.740Z,7.17
2019-05-05T02:24:07.042Z,8.67
2019-05-05T02:26:45.425Z,7.07
2019-05-05T02:29:24.659Z,7.70
2019-05-05T02:32:17.575Z,8.97
2019-05-05T02:34:56.478Z,8.83
2019-05-05T02:37:35.563Z,7.33
2019-05-05T02:40:15.684Z,6.67
2019-05-05T02:42:51.046Z,7.20
2019-05-05T02:46:05.528Z,6.93
2019-05-05T02:48:45.044Z,10.13
2019-05-05T02:51:25.696Z,8.33
2019-05-05T02:54:04.412Z,8.00
2019-05-05T02:56:44.493Z,10.43
2019-05-05T02:59:25.600Z,8.63
2019-05-05T03:02:04.321Z,8.47
2019-05-05T03:04:41.717Z,9.60
2019-05-05T03:07:18.693Z,11.63
2019-05-05T03:09:54.979Z,10.33
2019-05-05T03:12:34.627Z,12.60
2019-05-05T03:15:14.276Z,12.37
2019-05-05T03:17:50.628Z,13.07
2019-05-05T03:20:27.039Z,12.17
2019-05-05T03:23:04.187Z,12.77
2019-05-05T03:25:40.630Z,11.53
2019-05-05T03:28:16.908Z,15.47
2019-05-05T03:30:55.693Z,13.17
2019-05-05T03:33:31.016Z,14.93
2019-05-05T03:36:07.725Z,13.77
2019-05-05T03:38:44.534Z,14.47
2019-05-05T03:41:34.830Z,14.43
2019-05-05T03:44:14.113Z,12.90
2019-05-05T03:46:51.078Z,13.43
2019-05-05T03:49:27.932Z,16.57
2019-05-05T03:52:04.834Z,13.33
2019-05-05T03:54:43.513Z,15.23
2019-05-05T03:57:19.728Z,15.93
2019-05-05T03:59:56.595Z,16.93
2019-05-05T04:02:39.951Z,16.30
2019-05-05T04:05:33.994Z,20.10
2019-05-05T04:08:11.356Z,18.30
2019-05-05T04:10:47.645Z,19.00
2019-05-05T04:13:24.283Z,20.17
2019-05-05T04:16:08.091Z,18.57
2019-05-05T04:18:48.690Z,20.10
2019-05-05T04:21:33.552Z,17.80
2019-05-05T04:24:04.047Z,17.63
2019-05-05T04:26:40.370Z,18.10
2019-05-05T04:29:16.589Z,20.97
2019-05-05T04:31:54.030Z,22.77
2019-05-05T04:34:30.396Z,16.10
2019-05-05T04:37:06.636Z,19.67
2019-05-05T04:39:44.353Z,19.77
2019-05-05T04:42:20.857Z,18.10
2019-05-05T04:44:58.119Z,20.73
2019-05-05T04:47:45.024Z,24.13
2019-05-05T04:50:28.523Z,20.07
2019-05-05T04:53:06.396Z,22.23
2019-05-05T04:55:44.284Z,19.73
2019-05-05T04:58:20.756Z,19.43
2019-05-05T05:00:57.041Z,20.90
2019-05-05T05:03:46.651Z,20.13
2019-05-05T05:06:24.433Z,21.93
2019-05-05T05:09:00.595Z,20.10
2019-05-05T05:11:36.851Z,23.90
2019-05-05T05:14:14.357Z,21.03
2019-05-05T05:16:51.645Z,20.67
2019-05-05T05:19:27.887Z,19.33
2019-05-05T05:22:04.937Z,20.57
2019-05-05T05:24:41.418Z,20.80
2019-05-05T05:27:17.612Z,23.17
2019-05-05T05:29:54.380Z,20.07
2019-05-05T05:32:30.800Z,21.17
2019-05-05T05:35:07.339Z,18.60
2019-05-05T05:37:44.787Z,15.90
2019-05-05T05:40:23.649Z,16.93
2019-05-05T05:43:01.589Z,15.33
2019-05-05T05:45:45.318Z,14.90
2019-05-05T05:48:34.078Z,14.77
2019-05-05T05:51:11.733Z,15.70
2019-05-05T05:53:47.928Z,15.70
2019-05-05T05:56:24.976Z,15.77
2019-05-05T05:59:01.241Z,14.53
2019-05-05T06:01:37.529Z,13.70
2019-05-05T06:04:14.536Z,13.73
2019-05-05T06:06:50.809Z,13.33
2019-05-05T06:09:26.982Z,13.27
2019-05-05T06:12:03.674Z,12.70
2019-05-05T06:14:39.952Z,13.40
2019-05-05T06:17:16.093Z,12.30
2019-05-05T06:19:53.459Z,12.20
2019-05-05T06:22:31.538Z,11.63
2019-05-05T06:25:08.183Z,12.03
2019-05-05T06:27:44.642Z,10.17
2019-05-05T06:30:21.158Z,10.20
2019-05-05T06:32:57.364Z,10.67
2019-05-05T06:35:33.908Z,8.67
2019-05-05T06:38:10.209Z,9.50
2019-05-05T06:41:04.105Z,9.07
2019-05-05T06:43:47.184Z,9.10
2019-05-05T06:46:34.217Z,9.07
2019-05-05T06:49:10.598Z,7.00
2019-05-05T06:51:46.859Z,6.70
2019-05-05T06:54:24.146Z,4.73
2019-05-05T06:57:00.520Z,4.33
2019-05-05T06:59:36.663Z,3.53
2019-05-05T07:02:14.607Z,4.97
2019-05-05T07:04:50.962Z,4.00
2019-05-05T07:07:27.163Z,5.77
2019-05-05T07:10:04.351Z,4.87
2019-05-05T07:12:40.556Z,3.60
2019-05-05T07:15:16.898Z,5.00
2019-05-05T07:17:53.555Z,4.30
2019-05-05T07:20:29.904Z,4.80
2019-05-05T07:23:07.204Z,4.77
2019-05-05T07:25:45.910Z,4.13
2019-05-05T07:28:23.411Z,3.10
2019-05-05T07:30:59.177Z,2.80
2019-05-05T07:33:35.370Z,2.90
2019-05-05T07:36:15.889Z,3.57
2019-05-05T07:38:54.681Z,3.30
2019-05-05T07:41:31.204Z,3.60
2019-05-05T07:44:07.514Z,2.73
2019-05-05T07:46:46.531Z,4.07
2019-05-05T07:49:24.337Z,3.57
2019-05-05T07:52:00.847Z,2.63
2019-05-05T07:54:37.126Z,2.77
2019-05-05T07:57:14.642Z,6.53
2019-05-05T07:59:51.079Z,4.93
2019-05-05T08:02:27.344Z,4.10
2019-05-05T08:05:04.716Z,3.63
2019-05-05T08:07:41.002Z,2.70
2019-05-05T08:10:17.341Z,3.30
2019-05-05T08:12:55.028Z,2.97
2019-05-05T08:15:31.300Z,4.60
2019-05-05T08:18:15.193Z,3.20
2019-05-05T08:20:53.777Z,3.77
2019-05-05T08:23:44.745Z,2.67
2019-05-05T08:26:33.569Z,3.13
2019-05-05T08:29:27.781Z,4.73
2019-05-05T08:32:05.776Z,3.60
2019-05-05T08:34:56.626Z,3.87
2019-05-05T08:37:23.665Z,4.30
2019-05-05T08:40:09.604Z,4.10
2019-05-05T08:42:46.071Z,3.40
2019-05-05T08:45:26.175Z,4.03
2019-05-05T08:48:00.573Z,3.37
2019-05-05T08:50:39.081Z,2.43
2019-05-05T08:53:15.326Z,4.57
2019-05-05T08:55:51.641Z,4.10
2019-05-05T08:58:37.969Z,5.27
2019-05-05T09:01:14.910Z,4.50
2019-05-05T09:03:54.742Z,8.37
2019-05-05T09:06:31.039Z,5.73
2019-05-05T09:09:10.467Z,5.63
2019-05-05T09:11:46.676Z,4.80
2019-05-05T09:14:24.030Z,4.60
2019-05-05T09:17:00.576Z,4.33
2019-05-05T09:19:44.806Z,2.03
2019-05-05T09:22:15.772Z,2.60
2019-05-05T09:25:01.069Z,3.77
2019-05-05T09:27:39.850Z,3.20
2019-05-05T09:30:18.750Z,3.13
2019-05-05T09:32:55.013Z,3.37
2019-05-05T09:35:34.272Z,3.43
2019-05-05T09:38:15.313Z,5.13
2019-05-05T09:40:54.605Z,2.90
2019-05-05T09:43:31.443Z,3.73
2019-05-05T09:46:09.072Z,3.23
2019-05-05T09:48:45.465Z,3.60
2019-05-05T09:51:24.037Z,3.90
2019-05-05T09:54:11.028Z,4.30
2019-05-05T09:56:39.063Z,6.43
2019-05-05T09:59:15.657Z,3.60
2019-05-05T10:01:53.783Z,3.53
2019-05-05T10:04:31.173Z,3.47
2019-05-05T10:07:07.743Z,4.17
2019-05-05T10:09:44.239Z,3.10
2019-05-05T10:12:23.512Z,3.23
2019-05-05T10:15:00.296Z,4.60
2019-05-05T10:17:37.977Z,4.83
2019-05-05T10:20:14.669Z,3.30
2019-05-05T10:22:59.744Z,2.83
2019-05-05T10:25:44.663Z,5.63
2019-05-05T10:28:21.215Z,5.33
2019-05-05T10:30:57.570Z,5.07
2019-05-05T10:33:38.127Z,4.30
2019-05-05T10:36:14.735Z,5.33
2019-05-05T10:38:54.435Z,7.07
2019-05-05T10:41:33.848Z,8.07
2019-05-05T10:44:14.680Z,6.30
2019-05-05T10:46:56.808Z,13.20
2019-05-05T10:49:33.806Z,16.57
2019-05-05T10:52:14.207Z,3.60
2019-05-05T10:54:50.684Z,13.40
2019-05-05T10:57:26.900Z,25.53
2019-05-05T11:00:12.237Z,3.60
2019-05-05T11:02:48.889Z,3.10
2019-05-05T11:05:29.147Z,12.10
2019-05-05T11:08:07.124Z,4.63
2019-05-05T11:10:46.350Z,4.37
2019-05-05T11:13:23.974Z,7.40
2019-05-05T11:16:00.910Z,4.30
2019-05-05T11:18:38.623Z,4.10
2019-05-05T11:21:15.267Z,3.10
2019-05-05T11:23:53.905Z,3.47
2019-05-05T11:26:30.093Z,5.90
2019-05-05T11:29:09.561Z,3.47
2019-05-05T11:31:48.879Z,3.93
2019-05-05T11:34:27.764Z,4.37
2019-05-05T11:37:07.093Z,3.80
2019-05-05T11:39:45.165Z,2.80
2019-05-05T11:42:21.405Z,2.57
2019-05-05T11:44:57.695Z,2.40
2019-05-05T11:47:35.444Z,2.63
2019-05-05T11:50:11.925Z,3.47
2019-05-05T11:52:48.211Z,2.63
2019-05-05T11:55:24.917Z,2.57
2019-05-05T11:58:03.435Z,2.87
2019-05-05T12:00:39.782Z,4.90
2019-05-05T12:03:16.400Z,4.00
2019-05-05T12:05:54.224Z,4.73
2019-05-05T12:08:30.423Z,4.30
2019-05-05T12:11:07.412Z,3.97
2019-05-05T12:13:44.049Z,5.43
2019-05-05T12:16:23.555Z,3.93
2019-05-05T12:19:01.597Z,8.57
2019-05-05T12:21:38.042Z,4.97
2019-05-05T12:24:15.934Z,3.13
2019-05-05T12:26:59.427Z,7.20
2019-05-05T12:29:40.074Z,4.37
2019-05-05T12:32:17.886Z,3.73
2019-05-05T12:34:54.112Z,3.00
2019-05-05T12:37:30.636Z,3.30
2019-05-05T12:40:07.949Z,3.07
2019-05-05T12:42:44.097Z,3.47
2019-05-05T12:45:24.020Z,3.37
2019-05-05T12:48:05.001Z,3.23
2019-05-05T12:50:41.593Z,2.87
2019-05-05T12:53:17.936Z,3.70
2019-05-05T12:55:54.133Z,3.50
2019-05-05T12:58:33.559Z,2.50
2019-05-05T13:01:17.704Z,7.10
2019-05-05T13:03:54.304Z,2.50
2019-05-05T13:06:34.538Z,3.00
2019-05-05T13:09:13.553Z,2.80
2019-05-05T13:11:50.317Z,2.77
2019-05-05T13:14:26.616Z,2.67
2019-05-05T13:17:03.709Z,2.60
2019-05-05T13:19:43.598Z,2.90
2019-05-05T13:22:28.793Z,2.53
2019-05-05T13:25:24.039Z,3.43
2019-05-05T13:28:00.609Z,2.40
2019-05-05T13:30:36.809Z,2.93
2019-05-05T13:33:14.138Z,3.63
2019-05-05T13:35:59.774Z,2.73
2019-05-05T13:38:36.021Z,2.93
2019-05-05T13:41:15.432Z,3.50
2019-05-05T13:43:53.881Z,2.23
2019-05-05T13:46:33.785Z,3.43
2019-05-05T13:49:26.588Z,4.40
2019-05-05T13:52:04.768Z,2.90
2019-05-05T13:54:43.781Z,3.37
2019-05-05T13:57:21.399Z,2.30
2019-05-05T13:59:57.678Z,3.27
2019-05-05T14:02:34.393Z,3.67
2019-05-05T14:05:10.735Z,2.60
2019-05-05T14:07:47.018Z,3.30
2019-05-05T14:10:24.408Z,4.43
2019-05-05T14:13:00.759Z,2.80
2019-05-05T14:15:37.085Z,3.37
2019-05-05T14:18:14.263Z,2.50
2019-05-05T14:20:50.657Z,3.53
2019-05-05T14:23:27.979Z,4.23
2019-05-05T14:26:05.514Z,3.03
2019-05-05T14:28:41.725Z,3.30
2019-05-05T14:31:21.001Z,3.57
2019-05-05T14:33:59.019Z,3.90
2019-05-05T14:36:39.651Z,2.80
2019-05-05T14:39:17.508Z,3.07
2019-05-05T14:41:56.803Z,3.40
2019-05-05T14:44:37.477Z,3.43
2019-05-05T14:47:15.809Z,3.10
2019-05-05T14:49:53.847Z,3.80
2019-05-05T14:52:29.695Z,3.20
2019-05-05T14:55:07.647Z,3.03
2019-05-05T14:57:45.390Z,3.73
2019-05-05T15:00:24.209Z,2.57
2019-05-05T15:03:03.792Z,4.20
2019-05-05T15:05:41.761Z,2.30
2019-05-05T15:08:28.629Z,3.03
2019-05-05T15:11:14.103Z,2.73
2019-05-05T15:13:50.324Z,3.40
2019-05-05T15:16:26.845Z,4.27
2019-05-05T15:19:03.872Z,2.63
2019-05-05T15:21:44.245Z,3.00
2019-05-05T15:24:21.484Z,3.17
2019-05-05T15:26:57.712Z,4.37
2019-05-05T15:29:34.483Z,4.47
2019-05-05T15:32:11.002Z,3.97
2019-05-05T15:34:47.561Z,6.10
2019-05-05T15:37:27.177Z,4.63
2019-05-05T15:40:04.111Z,3.30
2019-05-05T15:42:43.850Z,3.83
2019-05-05T15:45:18.531Z,5.47
2019-05-05T15:47:55.072Z,5.43
2019-05-05T15:50:31.315Z,4.90
2019-05-05T15:53:07.698Z,6.43
2019-05-05T15:55:44.265Z,6.60
2019-05-05T15:58:20.915Z,8.97
2019-05-05T16:00:57.279Z,7.67
2019-05-05T16:03:33.526Z,6.57
2019-05-05T16:06:09.869Z,8.57
2019-05-05T16:08:46.183Z,10.40
2019-05-05T16:11:23.377Z,12.43
2019-05-05T16:14:01.157Z,12.03
2019-05-05T16:16:48.132Z,14.67
2019-05-05T16:19:27.906Z,11.23
2019-05-05T16:22:06.754Z,18.30
2019-05-05T16:24:44.764Z,10.63
2019-05-05T16:27:22.323Z,24.93
2019-05-05T16:29:58.967Z,14.97
2019-05-05T16:32:35.317Z,16.23
2019-05-05T16:35:14.524Z,16.27
2019-05-05T16:37:50.863Z,16.20
2019-05-05T16:40:27.555Z,11.43
2019-05-05T16:43:04.680Z,11.17
2019-05-05T16:45:41.082Z,8.40
2019-05-05T16:48:17.273Z,7.20
2019-05-05T16:50:54.148Z,9.33
2019-05-05T16:53:39.794Z,7.90
2019-05-05T16:56:17.020Z,6.27
2019-05-05T16:58:56.259Z,6.87
2019-05-05T17:01:35.465Z,9.40
2019-05-05T17:04:11.623Z,7.63
2019-05-05T17:06:48.671Z,9.93
2019-05-05T17:09:25.009Z,6.70
2019-05-05T17:12:10.488Z,8.03
2019-05-05T17:14:48.940Z,7.90
2019-05-05T17:17:29.793Z,8.90
2019-05-05T17:20:13.865Z,8.20
2019-05-05T17:22:51.913Z,7.47
2019-05-05T17:25:28.053Z,8.90
2019-05-05T17:28:04.584Z,6.57
2019-05-05T17:30:40.819Z,6.93
2019-05-05T17:33:17.383Z,7.43
2019-05-05T17:35:53.916Z,5.67
2019-05-05T17:38:30.340Z,6.90
2019-05-05T17:41:11.058Z,8.00
2019-05-05T17:43:48.899Z,7.70
2019-05-05T17:46:29.440Z,12.63
2019-05-05T17:49:23.079Z,8.13
2019-05-05T17:52:03.699Z,7.03
2019-05-05T17:54:41.750Z,4.53
2019-05-05T17:57:17.887Z,6.03
2019-05-05T17:59:54.061Z,5.23
2019-05-05T18:02:30.360Z,10.10
2019-05-05T18:05:06.878Z,8.70
2019-05-05T18:07:45.124Z,6.20
2019-05-05T18:10:31.659Z,6.37
2019-05-05T18:13:14.190Z,8.67
2019-05-05T18:15:51.736Z,6.13
2019-05-05T18:18:27.942Z,5.90
2019-05-05T18:21:04.185Z,5.67
2019-05-05T18:23:40.462Z,7.23
2019-05-05T18:26:16.715Z,7.77
2019-05-05T18:28:54.034Z,4.97
2019-05-05T18:31:33.522Z,6.93
2019-05-05T18:34:09.665Z,6.77
2019-05-05T18:36:46.000Z,7.10
2019-05-05T18:39:22.216Z,7.50
2019-05-05T18:42:13.823Z,8.03
2019-05-05T18:45:03.827Z,9.70
2019-05-05T18:47:40.147Z,7.40
2019-05-05T18:50:16.648Z,7.47
2019-05-05T18:52:53.871Z,7.53
2019-05-05T18:55:30.179Z,9.57
2019-05-05T18:58:07.800Z,6.63
2019-05-05T19:01:03.808Z,7.00
2019-05-05T19:03:44.224Z,7.50
2019-05-05T19:06:23.960Z,6.23
2019-05-05T19:09:02.539Z,10.80
2019-05-05T19:11:39.511Z,9.13
2019-05-05T19:14:15.794Z,7.90
2019-05-05T19:16:55.369Z,9.60
2019-05-05T19:19:29.788Z,11.10
2019-05-05T19:22:07.604Z,19.83
2019-05-05T19:24:44.108Z,16.90
2019-05-05T19:27:20.525Z,18.33
2019-05-05T19:29:56.665Z,23.73
2019-05-05T19:32:34.920Z,14.97
2019-05-05T19:35:12.265Z,12.50
2019-05-05T19:37:48.472Z,10.57
2019-05-05T19:40:24.683Z,9.67
2019-05-05T19:43:00.920Z,10.27
2019-05-05T19:45:37.134Z,9.47
2019-05-05T19:48:14.942Z,11.00
2019-05-05T19:50:55.939Z,13.53
2019-05-05T19:53:35.228Z,16.30
2019-05-05T19:56:10.016Z,11.77
2019-05-05T19:58:58.326Z,11.70
2019-05-05T20:01:34.791Z,10.67
2019-05-05T20:04:01.934Z,9.80
2019-05-05T20:06:38.151Z,11.23
2019-05-05T20:09:14.494Z,11.97
2019-05-05T20:11:50.741Z,10.83
2019-05-05T20:14:26.951Z,11.37
2019-05-05T20:17:04.848Z,10.33
2019-05-05T20:19:43.951Z,9.97
2019-05-05T20:22:20.466Z,8.63
2019-05-05T20:24:56.601Z,14.00
2019-05-05T20:27:34.334Z,9.00
2019-05-05T20:30:10.751Z,16.90
2019-05-05T20:33:00.902Z,11.43
2019-05-05T20:35:44.477Z,12.10
2019-05-05T20:38:27.911Z,11.67
2019-05-05T20:41:11.264Z,11.80
2019-05-05T20:43:47.544Z,16.47
2019-05-05T20:46:24.093Z,16.53
2019-05-05T20:49:00.345Z,14.07
2019-05-05T20:51:36.477Z,9.67
2019-05-05T20:54:14.282Z,12.03
2019-05-05T20:56:50.505Z,10.67
2019-05-05T20:59:30.847Z,14.63
2019-05-05T21:02:05.953Z,9.93
2019-05-05T21:04:44.422Z,12.50
2019-05-05T21:07:23.130Z,14.67
2019-05-05T21:09:57.899Z,13.27
2019-05-05T21:12:41.941Z,13.43
2019-05-05T21:15:13.116Z,12.40
2019-05-05T21:17:49.516Z,12.33
2019-05-05T21:20:25.624Z,15.53
2019-05-05T21:23:15.708Z,12.77
2019-05-05T21:26:05.805Z,9.77
2019-05-05T21:28:41.893Z,13.00
2019-05-05T21:31:18.035Z,12.13
2019-05-05T21:33:54.761Z,14.43
2019-05-05T21:36:31.191Z,11.90
2019-05-05T21:39:08.857Z,12.63
2019-05-05T21:41:45.067Z,11.10
2019-05-05T21:44:21.308Z,9.53
2019-05-05T21:46:59.249Z,12.67
2019-05-05T21:49:35.559Z,13.93
2019-05-05T21:52:28.447Z,14.33
2019-05-05T21:55:24.526Z,13.97
2019-05-05T21:58:08.342Z,10.13
2019-05-05T22:00:52.203Z,13.33
2019-05-05T22:03:36.242Z,12.40
2019-05-05T22:06:14.420Z,14.47
2019-05-05T22:08:50.316Z,13.57
2019-05-05T22:11:26.448Z,11.47
2019-05-05T22:14:04.334Z,11.33
2019-05-05T22:16:40.599Z,12.13
2019-05-05T22:19:18.337Z,13.50
2019-05-05T22:21:58.863Z,10.17
2019-05-05T22:24:35.747Z,13.40
2019-05-05T22:27:12.110Z,11.37
2019-05-05T22:29:48.323Z,13.97
2019-05-05T22:32:24.986Z,13.40
2019-05-05T22:35:01.301Z,13.30
2019-05-05T22:37:37.531Z,14.00
2019-05-05T22:40:24.342Z,13.70
2019-05-05T22:42:59.843Z,15.70
2019-05-05T22:45:36.028Z,14.53
2019-05-05T22:48:14.363Z,15.57
2019-05-05T22:50:50.122Z,15.67
2019-05-05T22:53:26.377Z,13.07
2019-05-05T22:56:04.009Z,14.13
2019-05-05T22:58:40.491Z,15.30
2019-05-05T23:01:17.024Z,11.30
2019-05-05T23:04:06.977Z,18.43
2019-05-05T23:06:48.015Z,15.27
2019-05-05T23:09:24.232Z,18.03
2019-05-05T23:12:01.662Z,17.23
2019-05-05T23:14:37.913Z,16.13
2019-05-05T23:17:34.229Z,15.73
2019-05-05T23:20:16.323Z,15.53
2019-05-05T23:23:14.586Z,16.13
2019-05-05T23:25:52.043Z,17.40
2019-05-05T23:28:28.301Z,14.37
2019-05-05T23:31:04.515Z,20.67
2019-05-05T23:33:41.346Z,13.70
2019-05-05T23:36:17.530Z,15.93
2019-05-05T23:38:54.898Z,12.83
2019-05-05T23:41:31.408Z,15.27
2019-05-05T23:44:07.549Z,14.27
2019-05-05T23:46:45.283Z,12.40
2019-05-05T23:49:21.547Z,17.13
2019-05-05T23:51:57.767Z,11.97
2019-05-05T23:54:34.171Z,15.40
2019-05-05T23:57:10.416Z,14.40
2019-05-05T23:59:46.569Z,14.40
